sensor_id;sensor_type;location;lat;lon;timestamp;P1;durP1;ratioP1;P2;durP2;ratioP2
30249;SDS011;17064;47.974;13.826;2023-02-15T04:07:02;27.77;;;11.65;;
30249;SDS011;17064;47.974;13.826;2023-02-15T04:12:15;24.83;;;11.80;;
30249;SDS011;17064;47.974;13.826;2023-02-15T04:22:47;24.70;;;10.35;;
30249;SDS011;17064;47.974;13.826;2023-02-15T04:28:06;27.17;;;11.45;;
30249;SDS011;17064;47.974;13.826;2023-02-15T04:33:07;24.92;;;10.82;;
30249;SDS011;17064;47.974;13.826;2023-02-15T04:38:08;21.25;;;10.27;;
30249;SDS011;17064;47.974;13.826;2023-02-15T04:43:10;22.20;;;11.00;;
30249;SDS011;17064;47.974;13.826;2023-02-15T04:48:10;24.27;;;11.13;;
30249;SDS011;17064;47.974;13.826;2023-02-15T04:53:11;29.65;;;11.60;;
30249;SDS011;17064;47.974;13.826;2023-02-15T04:58:12;69.75;;;30.10;;
30249;SDS011;17064;47.974;13.826;2023-02-15T05:03:13;33.17;;;15.57;;
30249;SDS011;17064;47.974;13.826;2023-02-15T05:08:13;32.38;;;14.30;;
30249;SDS011;17064;47.974;13.826;2023-02-15T05:13:14;35.25;;;14.70;;
30249;SDS011;17064;47.974;13.826;2023-02-15T05:18:16;28.17;;;11.85;;
30249;SDS011;17064;47.974;13.826;2023-02-15T05:23:17;27.83;;;12.45;;
30249;SDS011;17064;47.974;13.826;2023-02-15T05:28:17;29.33;;;12.82;;
30249;SDS011;17064;47.974;13.826;2023-02-15T05:33:21;33.63;;;14.43;;
30249;SDS011;17064;47.974;13.826;2023-02-15T05:38:22;28.70;;;11.50;;
30249;SDS011;17064;47.974;13.826;2023-02-15T05:43:25;27.90;;;12.25;;
30249;SDS011;17064;47.974;13.826;2023-02-15T05:48:27;35.05;;;14.05;;
30249;SDS011;17064;47.974;13.826;2023-02-15T05:53:28;31.15;;;13.63;;
30249;SDS011;17064;47.974;13.826;2023-02-15T05:58:31;31.15;;;11.75;;
30249;SDS011;17064;47.974;13.826;2023-02-15T06:03:34;29.27;;;12.93;;
30249;SDS011;17064;47.974;13.826;2023-02-15T06:08:35;28.83;;;11.57;;
30249;SDS011;17064;47.974;13.826;2023-02-15T06:13:37;30.58;;;12.15;;
30249;SDS011;17064;47.974;13.826;2023-02-15T06:18:38;31.98;;;12.35;;
30249;SDS011;17064;47.974;13.826;2023-02-15T06:23:38;25.27;;;11.80;;
30249;SDS011;17064;47.974;13.826;2023-02-15T06:28:39;28.08;;;12.68;;
30249;SDS011;17064;47.974;13.826;2023-02-15T06:33:41;24.77;;;10.93;;
30249;SDS011;17064;47.974;13.826;2023-02-15T06:38:41;31.17;;;11.43;;
30249;SDS011;17064;47.974;13.826;2023-02-15T06:43:42;24.90;;;10.98;;
30249;SDS011;17064;47.974;13.826;2023-02-15T06:48:43;25.25;;;11.40;;
30249;SDS011;17064;47.974;13.826;2023-02-15T06:53:43;26.30;;;11.15;;
30249;SDS011;17064;47.974;13.826;2023-02-15T06:58:44;28.17;;;12.80;;
30249;SDS011;17064;47.974;13.826;2023-02-15T07:03:46;25.63;;;11.15;;
30249;SDS011;17064;47.974;13.826;2023-02-15T07:08:46;25.20;;;11.27;;
30249;SDS011;17064;47.974;13.826;2023-02-15T07:13:47;25.33;;;11.15;;
30249;SDS011;17064;47.974;13.826;2023-02-15T07:18:48;34.67;;;12.13;;
30249;SDS011;17064;47.974;13.826;2023-02-15T07:23:49;34.10;;;13.00;;
30249;SDS011;17064;47.974;13.826;2023-02-15T07:28:49;29.63;;;12.70;;
30249;SDS011;17064;47.974;13.826;2023-02-15T07:33:50;29.48;;;12.10;;
30249;SDS011;17064;47.974;13.826;2023-02-15T07:38:51;41.80;;;15.10;;
30249;SDS011;17064;47.974;13.826;2023-02-15T07:43:51;36.63;;;15.07;;
30249;SDS011;17064;47.974;13.826;2023-02-15T07:48:52;30.52;;;12.73;;
30249;SDS011;17064;47.974;13.826;2023-02-15T07:53:53;29.50;;;12.48;;
30249;SDS011;17064;47.974;13.826;2023-02-15T07:58:54;35.38;;;15.15;;
30249;SDS011;17064;47.974;13.826;2023-02-15T08:08:58;32.78;;;12.90;;
30249;SDS011;17064;47.974;13.826;2023-02-15T08:14:09;29.65;;;12.45;;
30249;SDS011;17064;47.974;13.826;2023-02-15T08:19:18;39.75;;;13.75;;
30249;SDS011;17064;47.974;13.826;2023-02-15T08:24:22;35.45;;;14.60;;
30249;SDS011;17064;47.974;13.826;2023-02-15T08:29:25;32.60;;;13.60;;
30249;SDS011;17064;47.974;13.826;2023-02-15T08:34:27;39.28;;;14.88;;
30249;SDS011;17064;47.974;13.826;2023-02-15T08:39:29;44.85;;;14.88;;
30249;SDS011;17064;47.974;13.826;2023-02-15T08:44:30;34.35;;;14.20;;
30249;SDS011;17064;47.974;13.826;2023-02-15T08:49:31;41.60;;;14.25;;
30249;SDS011;17064;47.974;13.826;2023-02-15T08:54:32;38.22;;;15.40;;
30249;SDS011;17064;47.974;13.826;2023-02-15T08:59:33;38.60;;;14.20;;
30249;SDS011;17064;47.974;13.826;2023-02-15T09:04:33;34.60;;;13.82;;
30249;SDS011;17064;47.974;13.826;2023-02-15T09:09:34;41.28;;;16.95;;
30249;SDS011;17064;47.974;13.826;2023-02-15T09:14:35;33.08;;;14.35;;
30249;SDS011;17064;47.974;13.826;2023-02-15T09:19:35;36.28;;;15.63;;
30249;SDS011;17064;47.974;13.826;2023-02-15T09:24:36;35.28;;;14.23;;
30249;SDS011;17064;47.974;13.826;2023-02-15T09:29:37;39.67;;;15.38;;
30249;SDS011;17064;47.974;13.826;2023-02-15T09:34:37;32.42;;;13.90;;
30249;SDS011;17064;47.974;13.826;2023-02-15T09:39:39;37.70;;;13.93;;
30249;SDS011;17064;47.974;13.826;2023-02-15T09:49:59;36.28;;;15.00;;
30249;SDS011;17064;47.974;13.826;2023-02-15T10:05:46;30.55;;;13.85;;
30249;SDS011;17064;47.974;13.826;2023-02-15T10:16:25;27.75;;;13.00;;
30249;SDS011;17064;47.974;13.826;2023-02-15T10:26:47;28.67;;;12.90;;
30249;SDS011;17064;47.974;13.826;2023-02-15T10:42:11;27.05;;;12.02;;
30249;SDS011;17064;47.974;13.826;2023-02-15T10:47:52;34.97;;;14.93;;
30249;SDS011;17064;47.974;13.826;2023-02-15T10:58:33;30.92;;;12.35;;
30249;SDS011;17064;47.974;13.826;2023-02-15T11:09:21;27.45;;;13.25;;
30249;SDS011;17064;47.974;13.826;2023-02-15T11:19:39;26.90;;;10.88;;
30249;SDS011;17064;47.974;13.826;2023-02-15T11:24:48;28.88;;;10.60;;
30249;SDS011;17064;47.974;13.826;2023-02-15T11:29:54;24.42;;;11.90;;
30249;SDS011;17064;47.974;13.826;2023-02-15T11:35:02;24.63;;;11.40;;
30249;SDS011;17064;47.974;13.826;2023-02-15T11:40:12;26.52;;;11.07;;
30249;SDS011;17064;47.974;13.826;2023-02-15T11:45:36;19.77;;;10.25;;
30249;SDS011;17064;47.974;13.826;2023-02-15T11:50:45;24.38;;;11.68;;
30249;SDS011;17064;47.974;13.826;2023-02-15T11:55:47;24.77;;;11.50;;
30249;SDS011;17064;47.974;13.826;2023-02-15T12:06:22;25.05;;;12.35;;
30249;SDS011;17064;47.974;13.826;2023-02-15T12:11:37;22.42;;;10.88;;
30249;SDS011;17064;47.974;13.826;2023-02-15T12:16:49;26.20;;;11.52;;
30249;SDS011;17064;47.974;13.826;2023-02-15T12:21:53;26.85;;;12.18;;
30249;SDS011;17064;47.974;13.826;2023-02-15T12:27:02;21.92;;;10.63;;
30249;SDS011;17064;47.974;13.826;2023-02-15T12:32:08;35.28;;;13.07;;
30249;SDS011;17064;47.974;13.826;2023-02-15T12:37:20;35.75;;;17.13;;
30249;SDS011;17064;47.974;13.826;2023-02-15T12:42:24;27.20;;;12.90;;
30249;SDS011;17064;47.974;13.826;2023-02-15T12:47:26;25.63;;;12.88;;
30249;SDS011;17064;47.974;13.826;2023-02-15T12:52:29;31.33;;;12.82;;
30249;SDS011;17064;47.974;13.826;2023-02-15T12:57:31;27.48;;;12.73;;
30249;SDS011;17064;47.974;13.826;2023-02-15T13:07:44;27.77;;;13.20;;
30249;SDS011;17064;47.974;13.826;2023-02-15T13:12:48;28.98;;;12.48;;
30249;SDS011;17064;47.974;13.826;2023-02-15T13:17:55;28.88;;;13.10;;
30249;SDS011;17064;47.974;13.826;2023-02-15T13:22:58;26.50;;;13.15;;
30249;SDS011;17064;47.974;13.826;2023-02-15T13:28:05;23.77;;;12.55;;
30249;SDS011;17064;47.974;13.826;2023-02-15T13:33:28;29.38;;;13.93;;
30249;SDS011;17064;47.974;13.826;2023-02-15T13:38:42;23.77;;;11.60;;
30249;SDS011;17064;47.974;13.826;2023-02-15T13:49:13;27.05;;;11.90;;
30249;SDS011;17064;47.974;13.826;2023-02-15T13:59:58;23.38;;;11.23;;
30249;SDS011;17064;47.974;13.826;2023-02-15T14:31:54;22.20;;;10.13;;
30249;SDS011;17064;47.974;13.826;2023-02-15T14:36:59;19.83;;;10.23;;
30249;SDS011;17064;47.974;13.826;2023-02-15T14:42:04;22.42;;;10.45;;
30249;SDS011;17064;47.974;13.826;2023-02-15T14:47:34;27.50;;;11.85;;
30249;SDS011;17064;47.974;13.826;2023-02-15T14:53:03;22.42;;;10.88;;
30249;SDS011;17064;47.974;13.826;2023-02-15T14:58:18;27.17;;;11.68;;
30249;SDS011;17064;47.974;13.826;2023-02-15T15:03:20;24.23;;;11.95;;
30249;SDS011;17064;47.974;13.826;2023-02-15T15:13:39;29.65;;;13.98;;
30249;SDS011;17064;47.974;13.826;2023-02-15T15:18:53;26.08;;;11.85;;
30249;SDS011;17064;47.974;13.826;2023-02-15T15:23:54;26.15;;;11.57;;
30249;SDS011;17064;47.974;13.826;2023-02-15T15:28:57;30.02;;;13.32;;
30249;SDS011;17064;47.974;13.826;2023-02-15T15:50:28;23.85;;;12.45;;
30249;SDS011;17064;47.974;13.826;2023-02-15T15:55:29;33.28;;;13.43;;
30249;SDS011;17064;47.974;13.826;2023-02-15T16:05:37;27.67;;;13.13;;
30249;SDS011;17064;47.974;13.826;2023-02-15T16:10:38;34.70;;;11.43;;
30249;SDS011;17064;47.974;13.826;2023-02-15T16:15:44;23.70;;;10.18;;
30249;SDS011;17064;47.974;13.826;2023-02-15T16:20:51;86.32;;;14.05;;
30249;SDS011;17064;47.974;13.826;2023-02-15T16:31:12;24.73;;;11.05;;
30249;SDS011;17064;47.974;13.826;2023-02-15T16:36:22;21.98;;;10.23;;
30249;SDS011;17064;47.974;13.826;2023-02-15T16:41:26;26.80;;;11.98;;
30249;SDS011;17064;47.974;13.826;2023-02-15T16:46:40;28.60;;;12.98;;
30249;SDS011;17064;47.974;13.826;2023-02-15T16:51:43;30.67;;;11.93;;
30249;SDS011;17064;47.974;13.826;2023-02-15T16:56:45;28.02;;;11.45;;
30249;SDS011;17064;47.974;13.826;2023-02-15T17:01:48;28.73;;;12.23;;
30249;SDS011;17064;47.974;13.826;2023-02-15T17:07:24;24.52;;;12.13;;
30249;SDS011;17064;47.974;13.826;2023-02-15T17:17:45;26.58;;;11.77;;
30249;SDS011;17064;47.974;13.826;2023-02-15T17:22:47;27.63;;;12.73;;
30249;SDS011;17064;47.974;13.826;2023-02-15T17:27:51;36.47;;;14.52;;
30249;SDS011;17064;47.974;13.826;2023-02-15T17:32:59;34.63;;;15.50;;
30249;SDS011;17064;47.974;13.826;2023-02-15T17:38:03;31.67;;;14.30;;
30249;SDS011;17064;47.974;13.826;2023-02-15T17:43:22;32.63;;;13.75;;
30249;SDS011;17064;47.974;13.826;2023-02-15T17:48:36;36.40;;;13.98;;
30249;SDS011;17064;47.974;13.826;2023-02-15T17:53:39;45.25;;;16.75;;
30249;SDS011;17064;47.974;13.826;2023-02-15T17:59:02;33.30;;;14.27;;
30249;SDS011;17064;47.974;13.826;2023-02-15T18:04:10;55.13;;;18.55;;
30249;SDS011;17064;47.974;13.826;2023-02-15T18:09:31;33.75;;;14.65;;
30249;SDS011;17064;47.974;13.826;2023-02-15T18:14:53;137.85;;;31.95;;
30249;SDS011;17064;47.974;13.826;2023-02-15T18:19:54;56.25;;;23.05;;
30249;SDS011;17064;47.974;13.826;2023-02-15T18:24:56;55.38;;;17.23;;
30249;SDS011;17064;47.974;13.826;2023-02-15T18:29:57;55.13;;;16.75;;
30249;SDS011;17064;47.974;13.826;2023-02-15T18:34:58;39.08;;;16.48;;
30249;SDS011;17064;47.974;13.826;2023-02-15T18:40:03;51.92;;;18.35;;
30249;SDS011;17064;47.974;13.826;2023-02-15T18:45:12;51.22;;;17.92;;
30249;SDS011;17064;47.974;13.826;2023-02-15T18:50:19;41.92;;;16.83;;
30249;SDS011;17064;47.974;13.826;2023-02-15T18:55:22;34.73;;;15.80;;
30249;SDS011;17064;47.974;13.826;2023-02-15T19:00:26;38.33;;;16.13;;
30249;SDS011;17064;47.974;13.826;2023-02-15T19:05:32;38.85;;;16.65;;
30249;SDS011;17064;47.974;13.826;2023-02-15T19:10:33;38.00;;;16.52;;
30249;SDS011;17064;47.974;13.826;2023-02-15T19:15:35;34.58;;;15.23;;
30249;SDS011;17064;47.974;13.826;2023-02-15T19:20:38;33.83;;;14.73;;
30249;SDS011;17064;47.974;13.826;2023-02-15T19:25:41;31.65;;;14.38;;
30249;SDS011;17064;47.974;13.826;2023-02-15T19:30:43;33.03;;;15.10;;
30249;SDS011;17064;47.974;13.826;2023-02-15T19:35:45;32.53;;;14.65;;
30249;SDS011;17064;47.974;13.826;2023-02-15T19:40:51;34.20;;;16.58;;
30249;SDS011;17064;47.974;13.826;2023-02-15T19:45:54;28.00;;;11.87;;
30249;SDS011;17064;47.974;13.826;2023-02-15T19:50:55;35.28;;;15.88;;
30249;SDS011;17064;47.974;13.826;2023-02-15T19:55:58;37.17;;;14.70;;
30249;SDS011;17064;47.974;13.826;2023-02-15T20:00:59;31.48;;;14.55;;
30249;SDS011;17064;47.974;13.826;2023-02-15T20:06:02;33.65;;;14.65;;
30249;SDS011;17064;47.974;13.826;2023-02-15T20:11:07;31.38;;;14.55;;
30249;SDS011;17064;47.974;13.826;2023-02-15T20:16:12;32.28;;;13.90;;
30249;SDS011;17064;47.974;13.826;2023-02-15T20:21:13;27.92;;;14.30;;
30249;SDS011;17064;47.974;13.826;2023-02-15T20:26:16;29.40;;;13.75;;
30249;SDS011;17064;47.974;13.826;2023-02-15T20:31:18;31.97;;;14.07;;
30249;SDS011;17064;47.974;13.826;2023-02-15T20:36:21;28.42;;;14.32;;
30249;SDS011;17064;47.974;13.826;2023-02-15T20:41:24;29.55;;;13.32;;
30249;SDS011;17064;47.974;13.826;2023-02-15T20:46:35;37.13;;;15.48;;
30249;SDS011;17064;47.974;13.826;2023-02-15T20:51:36;33.47;;;14.68;;
30249;SDS011;17064;47.974;13.826;2023-02-15T20:56:39;31.42;;;15.27;;
30249;SDS011;17064;47.974;13.826;2023-02-15T21:01:42;27.83;;;11.97;;
30249;SDS011;17064;47.974;13.826;2023-02-15T21:06:44;30.67;;;14.57;;
30249;SDS011;17064;47.974;13.826;2023-02-15T21:11:45;34.85;;;14.27;;
30249;SDS011;17064;47.974;13.826;2023-02-15T21:16:50;39.42;;;16.38;;
30249;SDS011;17064;47.974;13.826;2023-02-15T21:21:52;35.17;;;14.82;;
30249;SDS011;17064;47.974;13.826;2023-02-15T21:26:53;36.97;;;14.93;;
30249;SDS011;17064;47.974;13.826;2023-02-15T21:31:56;41.80;;;16.98;;
30249;SDS011;17064;47.974;13.826;2023-02-15T21:37:01;43.45;;;16.92;;
30249;SDS011;17064;47.974;13.826;2023-02-15T21:42:04;36.83;;;15.73;;
30249;SDS011;17064;47.974;13.826;2023-02-15T21:47:29;44.03;;;16.90;;
30249;SDS011;17064;47.974;13.826;2023-02-15T21:52:49;42.58;;;16.73;;
30249;SDS011;17064;47.974;13.826;2023-02-15T21:57:50;47.05;;;19.73;;
30249;SDS011;17064;47.974;13.826;2023-02-15T22:02:52;56.45;;;22.00;;
30249;SDS011;17064;47.974;13.826;2023-02-15T22:07:55;62.00;;;23.70;;
30249;SDS011;17064;47.974;13.826;2023-02-15T22:13:00;68.60;;;23.88;;
30249;SDS011;17064;47.974;13.826;2023-02-15T22:18:02;68.57;;;23.80;;
30249;SDS011;17064;47.974;13.826;2023-02-15T22:23:03;58.10;;;21.88;;
30249;SDS011;17064;47.974;13.826;2023-02-15T22:28:04;64.53;;;23.70;;
30249;SDS011;17064;47.974;13.826;2023-02-15T22:33:05;55.47;;;22.25;;
30249;SDS011;17064;47.974;13.826;2023-02-15T22:38:09;70.80;;;23.48;;
30249;SDS011;17064;47.974;13.826;2023-02-15T22:43:33;56.80;;;24.10;;
30249;SDS011;17064;47.974;13.826;2023-02-15T22:48:31;54.88;;;23.27;;
30249;SDS011;17064;47.974;13.826;2023-02-15T22:53:32;55.42;;;21.05;;
30249;SDS011;17064;47.974;13.826;2023-02-15T22:58:33;52.38;;;20.30;;
30249;SDS011;17064;47.974;13.826;2023-02-15T23:03:34;60.75;;;23.05;;
30249;SDS011;17064;47.974;13.826;2023-02-15T23:08:34;49.10;;;20.35;;
30249;SDS011;17064;47.974;13.826;2023-02-15T23:13:35;47.97;;;18.02;;
30249;SDS011;17064;47.974;13.826;2023-02-15T23:18:37;44.33;;;18.40;;
30249;SDS011;17064;47.974;13.826;2023-02-15T23:23:40;39.20;;;16.42;;
30249;SDS011;17064;47.974;13.826;2023-02-15T23:28:42;60.30;;;20.13;;
30249;SDS011;17064;47.974;13.826;2023-02-15T23:33:43;45.20;;;18.33;;
30249;SDS011;17064;47.974;13.826;2023-02-15T23:38:45;44.78;;;17.23;;
30249;SDS011;17064;47.974;13.826;2023-02-15T23:44:04;46.88;;;16.17;;
30249;SDS011;17064;47.974;13.826;2023-02-15T23:49:04;30.55;;;14.80;;
30249;SDS011;17064;47.974;13.826;2023-02-15T23:54:14;37.80;;;16.13;;
30249;SDS011;17064;47.974;13.826;2023-02-15T23:59:20;38.90;;;16.52;;
